sensor_id;sensor_type;location;lat;lon;timestamp;P1;durP1;ratioP1;P2;durP2;ratioP2
46551;SDS011;32278;51.810;4.712;2022-08-20T00:00:41;7.50;;;4.25;;
46551;SDS011;32278;51.810;4.712;2022-08-20T00:03:16;8.30;;;4.78;;
46551;SDS011;32278;51.810;4.712;2022-08-20T00:05:50;8.68;;;4.50;;
46551;SDS011;32278;51.810;4.712;2022-08-20T00:08:19;8.15;;;4.13;;
46551;SDS011;32278;51.810;4.712;2022-08-20T00:10:47;15.20;;;5.65;;
46551;SDS011;32278;51.810;4.712;2022-08-20T00:13:16;12.93;;;4.28;;
46551;SDS011;32278;51.810;4.712;2022-08-20T00:15:44;11.05;;;4.97;;
46551;SDS011;32278;51.810;4.712;2022-08-20T00:18:10;9.43;;;5.07;;
46551;SDS011;32278;51.810;4.712;2022-08-20T00:20:38;9.77;;;4.45;;
46551;SDS011;32278;51.810;4.712;2022-08-20T00:23:06;10.73;;;4.68;;
46551;SDS011;32278;51.810;4.712;2022-08-20T00:25:31;9.23;;;4.18;;
46551;SDS011;32278;51.810;4.712;2022-08-20T00:27:57;10.05;;;4.88;;
46551;SDS011;32278;51.810;4.712;2022-08-20T00:30:24;5.20;;;4.22;;
46551;SDS011;32278;51.810;4.712;2022-08-20T00:32:55;10.30;;;4.75;;
46551;SDS011;32278;51.810;4.712;2022-08-20T00:35:25;10.85;;;4.32;;
46551;SDS011;32278;51.810;4.712;2022-08-20T00:37:52;7.80;;;4.40;;
46551;SDS011;32278;51.810;4.712;2022-08-20T00:40:19;8.48;;;4.30;;
46551;SDS011;32278;51.810;4.712;2022-08-20T00:42:50;8.50;;;4.63;;
46551;SDS011;32278;51.810;4.712;2022-08-20T00:45:21;9.50;;;4.70;;
46551;SDS011;32278;51.810;4.712;2022-08-20T00:47:48;6.45;;;4.30;;
46551;SDS011;32278;51.810;4.712;2022-08-20T00:50:17;7.57;;;4.88;;
46551;SDS011;32278;51.810;4.712;2022-08-20T00:52:47;7.97;;;4.50;;
46551;SDS011;32278;51.810;4.712;2022-08-20T00:55:15;15.70;;;5.50;;
46551;SDS011;32278;51.810;4.712;2022-08-20T00:57:42;10.82;;;5.30;;
46551;SDS011;32278;51.810;4.712;2022-08-20T01:00:24;8.73;;;5.57;;
46551;SDS011;32278;51.810;4.712;2022-08-20T01:02:53;9.80;;;4.65;;
46551;SDS011;32278;51.810;4.712;2022-08-20T01:05:19;9.35;;;4.68;;
46551;SDS011;32278;51.810;4.712;2022-08-20T01:07:47;8.20;;;4.13;;
46551;SDS011;32278;51.810;4.712;2022-08-20T01:10:18;5.05;;;4.05;;
46551;SDS011;32278;51.810;4.712;2022-08-20T01:12:47;9.13;;;4.20;;
46551;SDS011;32278;51.810;4.712;2022-08-20T01:15:15;5.07;;;3.35;;
46551;SDS011;32278;51.810;4.712;2022-08-20T01:17:43;4.78;;;3.22;;
46551;SDS011;32278;51.810;4.712;2022-08-20T01:23:13;7.20;;;3.90;;
46551;SDS011;32278;51.810;4.712;2022-08-20T01:28:48;5.50;;;3.80;;
46551;SDS011;32278;51.810;4.712;2022-08-20T01:31:20;5.93;;;3.78;;
46551;SDS011;32278;51.810;4.712;2022-08-20T01:33:54;4.25;;;3.40;;
46551;SDS011;32278;51.810;4.712;2022-08-20T01:36:22;8.45;;;3.95;;
46551;SDS011;32278;51.810;4.712;2022-08-20T01:39:03;6.80;;;3.83;;
46551;SDS011;32278;51.810;4.712;2022-08-20T01:44:15;8.20;;;3.42;;
46551;SDS011;32278;51.810;4.712;2022-08-20T01:46:41;4.95;;;3.80;;
46551;SDS011;32278;51.810;4.712;2022-08-20T01:49:20;5.72;;;4.38;;
46551;SDS011;32278;51.810;4.712;2022-08-20T01:51:50;6.07;;;4.53;;
46551;SDS011;32278;51.810;4.712;2022-08-20T01:54:17;5.60;;;3.58;;
46551;SDS011;32278;51.810;4.712;2022-08-20T01:57:00;8.48;;;3.80;;
46551;SDS011;32278;51.810;4.712;2022-08-20T01:59:28;7.32;;;4.55;;
46551;SDS011;32278;51.810;4.712;2022-08-20T02:01:54;9.77;;;4.88;;
46551;SDS011;32278;51.810;4.712;2022-08-20T02:04:20;7.88;;;5.65;;
46551;SDS011;32278;51.810;4.712;2022-08-20T02:06:48;10.93;;;5.18;;
46551;SDS011;32278;51.810;4.712;2022-08-20T02:09:16;15.32;;;7.78;;
46551;SDS011;32278;51.810;4.712;2022-08-20T02:11:43;14.02;;;7.25;;
46551;SDS011;32278;51.810;4.712;2022-08-20T02:14:10;20.00;;;8.10;;
46551;SDS011;32278;51.810;4.712;2022-08-20T02:16:38;12.98;;;9.18;;
46551;SDS011;32278;51.810;4.712;2022-08-20T02:19:10;13.52;;;8.40;;
46551;SDS011;32278;51.810;4.712;2022-08-20T02:21:40;13.13;;;8.77;;
46551;SDS011;32278;51.810;4.712;2022-08-20T02:24:10;13.60;;;8.80;;
46551;SDS011;32278;51.810;4.712;2022-08-20T02:26:36;17.75;;;9.90;;
46551;SDS011;32278;51.810;4.712;2022-08-20T02:29:03;11.95;;;8.25;;
46551;SDS011;32278;51.810;4.712;2022-08-20T02:31:31;10.98;;;7.10;;
46551;SDS011;32278;51.810;4.712;2022-08-20T02:33:57;12.73;;;7.25;;
46551;SDS011;32278;51.810;4.712;2022-08-20T02:36:22;13.55;;;6.50;;
46551;SDS011;32278;51.810;4.712;2022-08-20T02:38:48;13.02;;;6.72;;
46551;SDS011;32278;51.810;4.712;2022-08-20T02:41:14;10.57;;;6.40;;
46551;SDS011;32278;51.810;4.712;2022-08-20T02:43:40;6.75;;;5.43;;
46551;SDS011;32278;51.810;4.712;2022-08-20T02:46:06;8.88;;;4.55;;
46551;SDS011;32278;51.810;4.712;2022-08-20T02:48:32;6.55;;;4.75;;
46551;SDS011;32278;51.810;4.712;2022-08-20T02:50:59;12.18;;;4.32;;
46551;SDS011;32278;51.810;4.712;2022-08-20T02:53:28;8.90;;;4.97;;
46551;SDS011;32278;51.810;4.712;2022-08-20T02:55:55;6.45;;;4.10;;
46551;SDS011;32278;51.810;4.712;2022-08-20T02:58:21;9.85;;;3.92;;
46551;SDS011;32278;51.810;4.712;2022-08-20T03:00:47;8.27;;;3.75;;
46551;SDS011;32278;51.810;4.712;2022-08-20T03:03:14;12.13;;;3.92;;
46551;SDS011;32278;51.810;4.712;2022-08-20T03:05:42;6.32;;;3.42;;
46551;SDS011;32278;51.810;4.712;2022-08-20T03:08:10;5.60;;;3.58;;
46551;SDS011;32278;51.810;4.712;2022-08-20T03:10:39;8.15;;;4.25;;
46551;SDS011;32278;51.810;4.712;2022-08-20T03:13:06;10.85;;;4.43;;
46551;SDS011;32278;51.810;4.712;2022-08-20T03:15:36;8.75;;;4.22;;
46551;SDS011;32278;51.810;4.712;2022-08-20T03:18:03;9.50;;;4.30;;
46551;SDS011;32278;51.810;4.712;2022-08-20T03:20:29;11.23;;;5.55;;
46551;SDS011;32278;51.810;4.712;2022-08-20T03:22:55;9.75;;;4.50;;
46551;SDS011;32278;51.810;4.712;2022-08-20T03:25:21;9.85;;;4.18;;
46551;SDS011;32278;51.810;4.712;2022-08-20T03:27:47;11.20;;;4.10;;
46551;SDS011;32278;51.810;4.712;2022-08-20T03:30:14;13.02;;;4.93;;
46551;SDS011;32278;51.810;4.712;2022-08-20T03:32:41;15.65;;;4.90;;
46551;SDS011;32278;51.810;4.712;2022-08-20T03:35:08;7.28;;;5.07;;
46551;SDS011;32278;51.810;4.712;2022-08-20T03:37:36;8.73;;;5.25;;
46551;SDS011;32278;51.810;4.712;2022-08-20T03:40:04;7.55;;;4.15;;
46551;SDS011;32278;51.810;4.712;2022-08-20T03:42:32;10.15;;;4.75;;
46551;SDS011;32278;51.810;4.712;2022-08-20T03:44:58;7.93;;;4.55;;
46551;SDS011;32278;51.810;4.712;2022-08-20T03:47:24;7.55;;;4.45;;
46551;SDS011;32278;51.810;4.712;2022-08-20T03:49:51;16.83;;;5.00;;
46551;SDS011;32278;51.810;4.712;2022-08-20T03:52:21;11.35;;;4.20;;
46551;SDS011;32278;51.810;4.712;2022-08-20T03:54:46;9.63;;;4.88;;
46551;SDS011;32278;51.810;4.712;2022-08-20T03:57:13;7.57;;;4.13;;
46551;SDS011;32278;51.810;4.712;2022-08-20T03:59:40;9.07;;;4.43;;
46551;SDS011;32278;51.810;4.712;2022-08-20T04:02:06;9.30;;;4.15;;
46551;SDS011;32278;51.810;4.712;2022-08-20T04:04:33;10.68;;;4.70;;
46551;SDS011;32278;51.810;4.712;2022-08-20T04:06:58;15.35;;;4.68;;
46551;SDS011;32278;51.810;4.712;2022-08-20T04:09:24;8.82;;;4.88;;
46551;SDS011;32278;51.810;4.712;2022-08-20T04:11:49;12.82;;;4.95;;
46551;SDS011;32278;51.810;4.712;2022-08-20T04:14:15;11.18;;;5.30;;
46551;SDS011;32278;51.810;4.712;2022-08-20T04:16:40;9.90;;;5.15;;
46551;SDS011;32278;51.810;4.712;2022-08-20T04:19:07;6.72;;;4.43;;
46551;SDS011;32278;51.810;4.712;2022-08-20T04:21:33;11.43;;;4.95;;
46551;SDS011;32278;51.810;4.712;2022-08-20T04:24:00;9.23;;;4.75;;
46551;SDS011;32278;51.810;4.712;2022-08-20T04:26:27;11.90;;;4.65;;
46551;SDS011;32278;51.810;4.712;2022-08-20T04:28:53;8.52;;;4.82;;
46551;SDS011;32278;51.810;4.712;2022-08-20T04:31:19;8.48;;;5.45;;
46551;SDS011;32278;51.810;4.712;2022-08-20T04:33:45;12.15;;;5.90;;
46551;SDS011;32278;51.810;4.712;2022-08-20T04:36:10;11.73;;;5.03;;
46551;SDS011;32278;51.810;4.712;2022-08-20T04:38:38;9.18;;;4.82;;
46551;SDS011;32278;51.810;4.712;2022-08-20T04:41:03;13.43;;;5.47;;
46551;SDS011;32278;51.810;4.712;2022-08-20T04:43:30;9.65;;;5.10;;
46551;SDS011;32278;51.810;4.712;2022-08-20T04:46:01;10.70;;;4.93;;
46551;SDS011;32278;51.810;4.712;2022-08-20T04:48:33;10.32;;;5.10;;
46551;SDS011;32278;51.810;4.712;2022-08-20T04:51:02;9.75;;;5.50;;
46551;SDS011;32278;51.810;4.712;2022-08-20T04:53:29;11.98;;;5.88;;
46551;SDS011;32278;51.810;4.712;2022-08-20T04:55:55;9.57;;;5.30;;
46551;SDS011;32278;51.810;4.712;2022-08-20T04:58:24;13.20;;;5.60;;
46551;SDS011;32278;51.810;4.712;2022-08-20T05:00:56;9.90;;;5.30;;
46551;SDS011;32278;51.810;4.712;2022-08-20T05:03:23;7.93;;;5.72;;
46551;SDS011;32278;51.810;4.712;2022-08-20T05:05:50;8.40;;;5.63;;
46551;SDS011;32278;51.810;4.712;2022-08-20T05:08:16;9.57;;;5.50;;
46551;SDS011;32278;51.810;4.712;2022-08-20T05:10:43;15.13;;;6.75;;
46551;SDS011;32278;51.810;4.712;2022-08-20T05:13:09;11.75;;;5.78;;
46551;SDS011;32278;51.810;4.712;2022-08-20T05:15:36;10.25;;;5.43;;
46551;SDS011;32278;51.810;4.712;2022-08-20T05:18:03;9.88;;;5.72;;
46551;SDS011;32278;51.810;4.712;2022-08-20T05:20:32;11.27;;;6.28;;
46551;SDS011;32278;51.810;4.712;2022-08-20T05:23:04;13.45;;;6.40;;
46551;SDS011;32278;51.810;4.712;2022-08-20T05:25:31;12.43;;;6.80;;
46551;SDS011;32278;51.810;4.712;2022-08-20T05:27:58;10.15;;;6.07;;
46551;SDS011;32278;51.810;4.712;2022-08-20T05:30:27;10.95;;;5.78;;
46551;SDS011;32278;51.810;4.712;2022-08-20T05:33:01;12.68;;;6.03;;
46551;SDS011;32278;51.810;4.712;2022-08-20T05:35:29;10.87;;;5.90;;
46551;SDS011;32278;51.810;4.712;2022-08-20T05:37:55;7.70;;;5.63;;
46551;SDS011;32278;51.810;4.712;2022-08-20T05:40:21;9.52;;;5.68;;
46551;SDS011;32278;51.810;4.712;2022-08-20T05:42:48;12.60;;;5.78;;
46551;SDS011;32278;51.810;4.712;2022-08-20T05:45:15;10.88;;;5.90;;
46551;SDS011;32278;51.810;4.712;2022-08-20T05:47:42;10.15;;;5.38;;
46551;SDS011;32278;51.810;4.712;2022-08-20T05:50:09;13.55;;;5.07;;
46551;SDS011;32278;51.810;4.712;2022-08-20T05:52:35;10.15;;;5.60;;
46551;SDS011;32278;51.810;4.712;2022-08-20T05:55:02;10.82;;;6.05;;
46551;SDS011;32278;51.810;4.712;2022-08-20T05:57:29;8.32;;;5.43;;
46551;SDS011;32278;51.810;4.712;2022-08-20T05:59:54;10.70;;;5.13;;
46551;SDS011;32278;51.810;4.712;2022-08-20T06:02:20;8.50;;;5.07;;
46551;SDS011;32278;51.810;4.712;2022-08-20T06:05:04;11.35;;;5.50;;
46551;SDS011;32278;51.810;4.712;2022-08-20T06:07:30;11.63;;;5.22;;
46551;SDS011;32278;51.810;4.712;2022-08-20T06:09:55;9.95;;;5.25;;
46551;SDS011;32278;51.810;4.712;2022-08-20T06:12:21;12.60;;;5.22;;
46551;SDS011;32278;51.810;4.712;2022-08-20T06:14:46;16.83;;;5.90;;
46551;SDS011;32278;51.810;4.712;2022-08-20T06:17:13;10.82;;;4.45;;
46551;SDS011;32278;51.810;4.712;2022-08-20T06:19:41;11.85;;;4.15;;
46551;SDS011;32278;51.810;4.712;2022-08-20T06:22:07;11.10;;;3.88;;
46551;SDS011;32278;51.810;4.712;2022-08-20T06:24:33;9.65;;;4.05;;
46551;SDS011;32278;51.810;4.712;2022-08-20T06:26:59;8.68;;;4.55;;
46551;SDS011;32278;51.810;4.712;2022-08-20T06:29:27;8.52;;;3.60;;
46551;SDS011;32278;51.810;4.712;2022-08-20T06:31:53;9.38;;;3.15;;
46551;SDS011;32278;51.810;4.712;2022-08-20T06:34:19;7.90;;;3.25;;
46551;SDS011;32278;51.810;4.712;2022-08-20T06:36:45;7.90;;;3.45;;
46551;SDS011;32278;51.810;4.712;2022-08-20T06:39:12;12.25;;;3.22;;
46551;SDS011;32278;51.810;4.712;2022-08-20T06:41:38;4.38;;;2.55;;
46551;SDS011;32278;51.810;4.712;2022-08-20T06:44:04;8.02;;;2.97;;
46551;SDS011;32278;51.810;4.712;2022-08-20T06:46:31;9.05;;;4.57;;
46551;SDS011;32278;51.810;4.712;2022-08-20T06:48:57;10.57;;;2.53;;
46551;SDS011;32278;51.810;4.712;2022-08-20T06:51:23;4.38;;;2.53;;
46551;SDS011;32278;51.810;4.712;2022-08-20T06:53:49;7.78;;;2.85;;
46551;SDS011;32278;51.810;4.712;2022-08-20T06:56:14;5.10;;;2.47;;
46551;SDS011;32278;51.810;4.712;2022-08-20T06:58:40;10.98;;;3.67;;
46551;SDS011;32278;51.810;4.712;2022-08-20T07:01:07;7.88;;;2.83;;
46551;SDS011;32278;51.810;4.712;2022-08-20T07:03:34;5.90;;;1.95;;
46551;SDS011;32278;51.810;4.712;2022-08-20T07:06:02;7.13;;;2.00;;
46551;SDS011;32278;51.810;4.712;2022-08-20T07:08:27;9.00;;;3.05;;
46551;SDS011;32278;51.810;4.712;2022-08-20T07:10:53;7.50;;;2.97;;
46551;SDS011;32278;51.810;4.712;2022-08-20T07:13:18;4.55;;;2.20;;
46551;SDS011;32278;51.810;4.712;2022-08-20T07:15:44;6.78;;;2.60;;
46551;SDS011;32278;51.810;4.712;2022-08-20T07:18:10;7.00;;;2.38;;
46551;SDS011;32278;51.810;4.712;2022-08-20T07:20:37;6.28;;;2.33;;
46551;SDS011;32278;51.810;4.712;2022-08-20T07:23:05;10.55;;;3.55;;
46551;SDS011;32278;51.810;4.712;2022-08-20T07:25:32;8.25;;;2.17;;
46551;SDS011;32278;51.810;4.712;2022-08-20T07:27:59;9.15;;;2.97;;
46551;SDS011;32278;51.810;4.712;2022-08-20T07:30:26;9.15;;;2.10;;
46551;SDS011;32278;51.810;4.712;2022-08-20T07:33:32;5.10;;;1.70;;
46551;SDS011;32278;51.810;4.712;2022-08-20T07:35:58;6.22;;;2.05;;
46551;SDS011;32278;51.810;4.712;2022-08-20T07:38:26;6.82;;;1.80;;
46551;SDS011;32278;51.810;4.712;2022-08-20T07:40:57;5.63;;;2.25;;
46551;SDS011;32278;51.810;4.712;2022-08-20T07:43:24;8.52;;;1.83;;
46551;SDS011;32278;51.810;4.712;2022-08-20T07:45:52;5.95;;;2.15;;
46551;SDS011;32278;51.810;4.712;2022-08-20T07:48:20;5.15;;;1.67;;
46551;SDS011;32278;51.810;4.712;2022-08-20T07:50:49;6.53;;;2.03;;
46551;SDS011;32278;51.810;4.712;2022-08-20T07:53:16;7.60;;;1.63;;
46551;SDS011;32278;51.810;4.712;2022-08-20T07:55:42;9.15;;;1.63;;
46551;SDS011;32278;51.810;4.712;2022-08-20T07:58:09;6.47;;;1.95;;
46551;SDS011;32278;51.810;4.712;2022-08-20T08:00:37;5.50;;;1.52;;
46551;SDS011;32278;51.810;4.712;2022-08-20T08:03:03;8.20;;;2.58;;
46551;SDS011;32278;51.810;4.712;2022-08-20T08:05:30;8.63;;;2.33;;
46551;SDS011;32278;51.810;4.712;2022-08-20T08:07:58;7.45;;;1.55;;
46551;SDS011;32278;51.810;4.712;2022-08-20T08:10:24;2.47;;;1.10;;
46551;SDS011;32278;51.810;4.712;2022-08-20T08:12:51;4.47;;;1.70;;
46551;SDS011;32278;51.810;4.712;2022-08-20T08:15:27;3.50;;;1.65;;
46551;SDS011;32278;51.810;4.712;2022-08-20T08:17:57;13.27;;;2.40;;
46551;SDS011;32278;51.810;4.712;2022-08-20T08:20:31;6.47;;;1.42;;
46551;SDS011;32278;51.810;4.712;2022-08-20T08:23:04;5.60;;;1.42;;
46551;SDS011;32278;51.810;4.712;2022-08-20T08:25:31;6.57;;;1.83;;
46551;SDS011;32278;51.810;4.712;2022-08-20T08:27:57;8.10;;;1.65;;
46551;SDS011;32278;51.810;4.712;2022-08-20T08:30:24;8.15;;;2.58;;
46551;SDS011;32278;51.810;4.712;2022-08-20T08:32:50;7.30;;;2.30;;
46551;SDS011;32278;51.810;4.712;2022-08-20T08:35:36;5.40;;;1.52;;
46551;SDS011;32278;51.810;4.712;2022-08-20T08:38:02;4.95;;;1.77;;
46551;SDS011;32278;51.810;4.712;2022-08-20T08:40:29;5.22;;;1.33;;
46551;SDS011;32278;51.810;4.712;2022-08-20T08:42:56;7.13;;;1.50;;
46551;SDS011;32278;51.810;4.712;2022-08-20T08:45:26;6.00;;;1.60;;
46551;SDS011;32278;51.810;4.712;2022-08-20T08:47:59;7.28;;;1.92;;
46551;SDS011;32278;51.810;4.712;2022-08-20T08:50:27;7.45;;;1.73;;
46551;SDS011;32278;51.810;4.712;2022-08-20T08:52:56;3.60;;;1.13;;
46551;SDS011;32278;51.810;4.712;2022-08-20T08:55:24;6.20;;;1.65;;
46551;SDS011;32278;51.810;4.712;2022-08-20T08:57:52;4.95;;;1.65;;
46551;SDS011;32278;51.810;4.712;2022-08-20T09:00:21;7.45;;;2.20;;
46551;SDS011;32278;51.810;4.712;2022-08-20T09:02:55;6.13;;;1.80;;
46551;SDS011;32278;51.810;4.712;2022-08-20T09:05:48;4.78;;;1.60;;
46551;SDS011;32278;51.810;4.712;2022-08-20T09:08:18;4.60;;;1.50;;
46551;SDS011;32278;51.810;4.712;2022-08-20T09:11:06;5.88;;;1.25;;
46551;SDS011;32278;51.810;4.712;2022-08-20T09:13:32;8.30;;;2.40;;
46551;SDS011;32278;51.810;4.712;2022-08-20T09:15:58;6.00;;;1.75;;
46551;SDS011;32278;51.810;4.712;2022-08-20T09:18:24;7.72;;;1.40;;
46551;SDS011;32278;51.810;4.712;2022-08-20T09:20:49;4.07;;;1.25;;
46551;SDS011;32278;51.810;4.712;2022-08-20T09:23:15;8.57;;;1.92;;
46551;SDS011;32278;51.810;4.712;2022-08-20T09:25:41;5.65;;;1.30;;
46551;SDS011;32278;51.810;4.712;2022-08-20T09:28:07;8.02;;;1.98;;
46551;SDS011;32278;51.810;4.712;2022-08-20T09:30:32;6.35;;;1.80;;
46551;SDS011;32278;51.810;4.712;2022-08-20T09:32:58;8.55;;;1.58;;
46551;SDS011;32278;51.810;4.712;2022-08-20T09:35:24;5.85;;;2.25;;
46551;SDS011;32278;51.810;4.712;2022-08-20T09:37:51;4.07;;;1.38;;
46551;SDS011;32278;51.810;4.712;2022-08-20T09:40:17;6.40;;;1.60;;
46551;SDS011;32278;51.810;4.712;2022-08-20T09:42:43;7.70;;;1.60;;
46551;SDS011;32278;51.810;4.712;2022-08-20T09:45:10;8.07;;;2.85;;
46551;SDS011;32278;51.810;4.712;2022-08-20T09:47:37;8.57;;;2.10;;
46551;SDS011;32278;51.810;4.712;2022-08-20T09:50:03;12.13;;;1.88;;
46551;SDS011;32278;51.810;4.712;2022-08-20T09:52:31;7.68;;;2.45;;
46551;SDS011;32278;51.810;4.712;2022-08-20T09:55:44;5.05;;;1.38;;
46551;SDS011;32278;51.810;4.712;2022-08-20T09:57:59;5.72;;;1.75;;
46551;SDS011;32278;51.810;4.712;2022-08-20T10:00:26;7.55;;;1.67;;
46551;SDS011;32278;51.810;4.712;2022-08-20T10:02:51;9.05;;;2.28;;
46551;SDS011;32278;51.810;4.712;2022-08-20T10:05:17;6.22;;;1.85;;
46551;SDS011;32278;51.810;4.712;2022-08-20T10:07:43;6.97;;;1.38;;
46551;SDS011;32278;51.810;4.712;2022-08-20T10:10:09;10.52;;;2.42;;
46551;SDS011;32278;51.810;4.712;2022-08-20T10:12:37;4.35;;;1.35;;
46551;SDS011;32278;51.810;4.712;2022-08-20T10:15:05;5.72;;;1.95;;
46551;SDS011;32278;51.810;4.712;2022-08-20T10:17:31;7.88;;;1.85;;
46551;SDS011;32278;51.810;4.712;2022-08-20T10:19:57;6.85;;;1.52;;
46551;SDS011;32278;51.810;4.712;2022-08-20T10:22:22;8.85;;;1.50;;
46551;SDS011;32278;51.810;4.712;2022-08-20T10:24:49;3.55;;;1.20;;
46551;SDS011;32278;51.810;4.712;2022-08-20T10:27:14;8.35;;;1.50;;
46551;SDS011;32278;51.810;4.712;2022-08-20T10:29:40;9.15;;;2.08;;
46551;SDS011;32278;51.810;4.712;2022-08-20T10:32:10;9.68;;;1.92;;
46551;SDS011;32278;51.810;4.712;2022-08-20T10:34:40;10.45;;;2.28;;
46551;SDS011;32278;51.810;4.712;2022-08-20T10:37:07;8.35;;;2.08;;
46551;SDS011;32278;51.810;4.712;2022-08-20T10:39:33;4.32;;;1.17;;
46551;SDS011;32278;51.810;4.712;2022-08-20T10:41:59;8.77;;;1.98;;
46551;SDS011;32278;51.810;4.712;2022-08-20T10:44:25;5.82;;;1.77;;
46551;SDS011;32278;51.810;4.712;2022-08-20T10:46:51;7.18;;;1.90;;
46551;SDS011;32278;51.810;4.712;2022-08-20T10:49:16;2.83;;;1.33;;
46551;SDS011;32278;51.810;4.712;2022-08-20T10:51:43;3.78;;;1.17;;
46551;SDS011;32278;51.810;4.712;2022-08-20T10:54:08;5.35;;;1.58;;
46551;SDS011;32278;51.810;4.712;2022-08-20T10:56:34;4.65;;;1.40;;
46551;SDS011;32278;51.810;4.712;2022-08-20T10:59:00;3.97;;;1.30;;
46551;SDS011;32278;51.810;4.712;2022-08-20T11:01:25;9.63;;;1.20;;
46551;SDS011;32278;51.810;4.712;2022-08-20T11:03:51;5.05;;;1.45;;
46551;SDS011;32278;51.810;4.712;2022-08-20T11:06:16;5.63;;;1.15;;
46551;SDS011;32278;51.810;4.712;2022-08-20T11:08:43;7.03;;;1.83;;
46551;SDS011;32278;51.810;4.712;2022-08-20T11:11:09;8.38;;;1.95;;
46551;SDS011;32278;51.810;4.712;2022-08-20T11:13:34;5.32;;;1.65;;
46551;SDS011;32278;51.810;4.712;2022-08-20T11:16:00;3.33;;;1.15;;
46551;SDS011;32278;51.810;4.712;2022-08-20T11:18:27;7.47;;;1.73;;
46551;SDS011;32278;51.810;4.712;2022-08-20T11:20:54;13.10;;;2.05;;
46551;SDS011;32278;51.810;4.712;2022-08-20T11:23:20;14.07;;;1.63;;
46551;SDS011;32278;51.810;4.712;2022-08-20T11:25:45;5.43;;;2.20;;
46551;SDS011;32278;51.810;4.712;2022-08-20T11:28:11;5.32;;;1.70;;
46551;SDS011;32278;51.810;4.712;2022-08-20T11:30:37;8.85;;;2.30;;
46551;SDS011;32278;51.810;4.712;2022-08-20T11:33:02;4.75;;;1.60;;
46551;SDS011;32278;51.810;4.712;2022-08-20T11:35:29;5.15;;;1.40;;
46551;SDS011;32278;51.810;4.712;2022-08-20T11:37:57;7.15;;;2.47;;
46551;SDS011;32278;51.810;4.712;2022-08-20T11:40:24;7.78;;;1.80;;
46551;SDS011;32278;51.810;4.712;2022-08-20T11:42:50;6.22;;;1.67;;
46551;SDS011;32278;51.810;4.712;2022-08-20T11:45:16;6.15;;;1.63;;
46551;SDS011;32278;51.810;4.712;2022-08-20T11:47:42;4.35;;;1.65;;
46551;SDS011;32278;51.810;4.712;2022-08-20T11:50:10;8.32;;;1.88;;
46551;SDS011;32278;51.810;4.712;2022-08-20T11:52:37;7.57;;;1.77;;
46551;SDS011;32278;51.810;4.712;2022-08-20T11:55:04;8.48;;;1.70;;
46551;SDS011;32278;51.810;4.712;2022-08-20T11:57:31;3.85;;;1.60;;
46551;SDS011;32278;51.810;4.712;2022-08-20T11:59:59;9.32;;;2.88;;
46551;SDS011;32278;51.810;4.712;2022-08-20T12:02:26;7.78;;;2.35;;
46551;SDS011;32278;51.810;4.712;2022-08-20T12:04:52;5.18;;;1.80;;
46551;SDS011;32278;51.810;4.712;2022-08-20T12:07:19;7.65;;;1.60;;
46551;SDS011;32278;51.810;4.712;2022-08-20T12:09:48;5.40;;;1.80;;
46551;SDS011;32278;51.810;4.712;2022-08-20T12:12:14;5.07;;;2.05;;
46551;SDS011;32278;51.810;4.712;2022-08-20T12:14:40;4.70;;;1.30;;
46551;SDS011;32278;51.810;4.712;2022-08-20T12:17:13;6.35;;;1.75;;
46551;SDS011;32278;51.810;4.712;2022-08-20T12:19:45;7.63;;;2.47;;
46551;SDS011;32278;51.810;4.712;2022-08-20T12:22:11;6.18;;;1.90;;
46551;SDS011;32278;51.810;4.712;2022-08-20T12:24:36;8.63;;;1.88;;
46551;SDS011;32278;51.810;4.712;2022-08-20T12:29:35;4.97;;;2.05;;
46551;SDS011;32278;51.810;4.712;2022-08-20T12:32:02;5.45;;;1.75;;
46551;SDS011;32278;51.810;4.712;2022-08-20T12:34:30;7.93;;;2.03;;
46551;SDS011;32278;51.810;4.712;2022-08-20T12:37:01;8.85;;;1.85;;
46551;SDS011;32278;51.810;4.712;2022-08-20T12:39:38;10.80;;;3.25;;
46551;SDS011;32278;51.810;4.712;2022-08-20T12:42:05;4.03;;;1.42;;
46551;SDS011;32278;51.810;4.712;2022-08-20T12:44:31;6.72;;;1.75;;
46551;SDS011;32278;51.810;4.712;2022-08-20T12:47:11;8.85;;;2.17;;
46551;SDS011;32278;51.810;4.712;2022-08-20T12:49:42;4.22;;;1.60;;
46551;SDS011;32278;51.810;4.712;2022-08-20T12:52:11;5.50;;;1.33;;
46551;SDS011;32278;51.810;4.712;2022-08-20T12:54:38;5.20;;;2.05;;
46551;SDS011;32278;51.810;4.712;2022-08-20T12:57:04;4.82;;;1.45;;
46551;SDS011;32278;51.810;4.712;2022-08-20T12:59:30;7.65;;;1.55;;
46551;SDS011;32278;51.810;4.712;2022-08-20T13:01:56;4.47;;;1.58;;
46551;SDS011;32278;51.810;4.712;2022-08-20T13:04:22;7.18;;;1.30;;
46551;SDS011;32278;51.810;4.712;2022-08-20T13:06:48;5.53;;;1.60;;
46551;SDS011;32278;51.810;4.712;2022-08-20T13:09:14;7.05;;;1.70;;
46551;SDS011;32278;51.810;4.712;2022-08-20T13:11:40;6.05;;;2.05;;
46551;SDS011;32278;51.810;4.712;2022-08-20T13:14:06;8.15;;;2.17;;
46551;SDS011;32278;51.810;4.712;2022-08-20T13:16:33;3.92;;;1.65;;
46551;SDS011;32278;51.810;4.712;2022-08-20T13:18:59;4.28;;;1.50;;
46551;SDS011;32278;51.810;4.712;2022-08-20T13:21:24;4.60;;;1.67;;
46551;SDS011;32278;51.810;4.712;2022-08-20T13:23:50;2.55;;;1.58;;
46551;SDS011;32278;51.810;4.712;2022-08-20T13:26:15;4.60;;;1.38;;
46551;SDS011;32278;51.810;4.712;2022-08-20T13:28:41;3.60;;;1.45;;
46551;SDS011;32278;51.810;4.712;2022-08-20T13:31:06;6.45;;;1.80;;
46551;SDS011;32278;51.810;4.712;2022-08-20T13:33:32;5.57;;;1.70;;
46551;SDS011;32278;51.810;4.712;2022-08-20T13:35:58;4.43;;;1.85;;
46551;SDS011;32278;51.810;4.712;2022-08-20T13:38:23;7.15;;;1.38;;
46551;SDS011;32278;51.810;4.712;2022-08-20T13:40:49;8.73;;;2.70;;
46551;SDS011;32278;51.810;4.712;2022-08-20T13:43:14;3.78;;;1.42;;
46551;SDS011;32278;51.810;4.712;2022-08-20T13:45:40;4.45;;;1.85;;
46551;SDS011;32278;51.810;4.712;2022-08-20T13:48:06;5.00;;;1.75;;
46551;SDS011;32278;51.810;4.712;2022-08-20T13:50:32;5.35;;;1.42;;
46551;SDS011;32278;51.810;4.712;2022-08-20T13:52:58;8.40;;;1.88;;
46551;SDS011;32278;51.810;4.712;2022-08-20T13:55:25;3.88;;;1.40;;
46551;SDS011;32278;51.810;4.712;2022-08-20T13:57:52;5.75;;;1.85;;
46551;SDS011;32278;51.810;4.712;2022-08-20T14:00:26;4.15;;;1.27;;
46551;SDS011;32278;51.810;4.712;2022-08-20T14:02:54;8.02;;;2.05;;
46551;SDS011;32278;51.810;4.712;2022-08-20T14:05:20;8.75;;;2.20;;
46551;SDS011;32278;51.810;4.712;2022-08-20T14:07:47;6.30;;;1.50;;
46551;SDS011;32278;51.810;4.712;2022-08-20T14:10:14;7.35;;;1.90;;
46551;SDS011;32278;51.810;4.712;2022-08-20T14:12:48;2.45;;;1.02;;
46551;SDS011;32278;51.810;4.712;2022-08-20T14:15:14;5.28;;;1.25;;
46551;SDS011;32278;51.810;4.712;2022-08-20T14:17:40;5.03;;;1.67;;
46551;SDS011;32278;51.810;4.712;2022-08-20T14:20:13;5.85;;;1.70;;
46551;SDS011;32278;51.810;4.712;2022-08-20T14:22:40;4.65;;;1.65;;
46551;SDS011;32278;51.810;4.712;2022-08-20T14:25:07;4.30;;;1.20;;
46551;SDS011;32278;51.810;4.712;2022-08-20T14:27:34;4.03;;;1.42;;
46551;SDS011;32278;51.810;4.712;2022-08-20T14:30:00;7.72;;;1.70;;
46551;SDS011;32278;51.810;4.712;2022-08-20T14:32:28;4.07;;;1.45;;
46551;SDS011;32278;51.810;4.712;2022-08-20T14:34:53;6.65;;;1.77;;
46551;SDS011;32278;51.810;4.712;2022-08-20T14:37:23;6.03;;;1.95;;
46551;SDS011;32278;51.810;4.712;2022-08-20T14:39:54;2.33;;;1.23;;
46551;SDS011;32278;51.810;4.712;2022-08-20T14:42:22;8.50;;;1.85;;
46551;SDS011;32278;51.810;4.712;2022-08-20T14:44:50;3.50;;;1.27;;
46551;SDS011;32278;51.810;4.712;2022-08-20T14:47:23;4.53;;;1.17;;
46551;SDS011;32278;51.810;4.712;2022-08-20T14:49:52;3.15;;;1.15;;
46551;SDS011;32278;51.810;4.712;2022-08-20T14:52:19;5.10;;;1.88;;
46551;SDS011;32278;51.810;4.712;2022-08-20T14:54:46;7.00;;;1.50;;
46551;SDS011;32278;51.810;4.712;2022-08-20T14:57:13;4.18;;;1.45;;
46551;SDS011;32278;51.810;4.712;2022-08-20T14:59:41;6.82;;;1.45;;